Time;durP1;ratioP1;P1;durP2;ratioP2;P2;SDS_P1;SDS_P2;PMS_P1;PMS_P2;Temp;Humidity;BMP_temperature;BMP_pressure;BME280_temperature;BME280_humidity;BME280_pressure;Samples;Min_cycle;Max_cycle;Signal;HPM_P1;HPM_P2
2022/04/17 00:01:33;;;;;;;19.33;11.13;;;18.30;52.10;;;;;;4908428;28;99894;-67
2022/04/17 00:03:58;;;;;;;20.45;11.20;;;18.30;52.10;;;;;;4909312;28;99073;-67
2022/04/17 00:06:24;;;;;;;17.10;9.68;;;18.30;52.10;;;;;;4908124;28;99178;-67
2022/04/17 00:08:50;;;;;;;18.85;9.98;;;18.30;52.00;;;;;;4908585;28;99897;-67
2022/04/17 00:11:16;;;;;;;21.27;10.30;;;18.30;52.00;;;;;;4907915;28;98695;-68
2022/04/17 00:13:44;;;;;;;19.83;9.73;;;18.30;51.80;;;;;;4909892;28;99108;-67
2022/04/17 00:16:10;;;;;;;18.77;10.43;;;18.30;51.80;;;;;;4909705;28;101574;-67
2022/04/17 00:18:36;;;;;;;18.63;9.05;;;18.30;51.80;;;;;;4907818;28;99704;-67
2022/04/17 00:21:03;;;;;;;16.67;9.57;;;18.30;51.70;;;;;;4909280;28;98627;-68
2022/04/17 00:23:30;;;;;;;14.43;8.95;;;18.30;51.80;;;;;;4909991;28;99141;-68
2022/04/17 00:25:55;;;;;;;16.25;8.60;;;18.30;51.70;;;;;;4908592;28;106493;-67
2022/04/17 00:28:21;;;;;;;16.08;8.93;;;18.20;51.60;;;;;;4908046;28;105857;-67
2022/04/17 00:30:48;;;;;;;17.05;8.63;;;18.30;51.60;;;;;;4908406;28;99141;-67
2022/04/17 00:33:15;;;;;;;14.18;8.70;;;18.20;51.60;;;;;;4891907;28;97967;-67
2022/04/17 00:35:43;;;;;;;14.25;8.70;;;18.30;51.60;;;;;;4908717;28;99213;-67
2022/04/17 00:38:08;;;;;;;14.20;8.60;;;18.20;51.70;;;;;;4908359;28;99398;-67
2022/04/17 00:40:34;;;;;;;12.88;8.27;;;18.20;51.70;;;;;;4908427;28;99919;-67
2022/04/17 00:42:59;;;;;;;14.70;8.45;;;18.20;51.60;;;;;;4909328;28;98599;-67
2022/04/17 00:45:26;;;;;;;13.75;8.02;;;18.20;51.70;;;;;;4908801;28;99195;-67
2022/04/17 00:47:51;;;;;;;16.13;8.60;;;18.20;51.60;;;;;;4907780;28;100444;-67
2022/04/17 00:50:18;;;;;;;13.23;7.57;;;18.20;51.60;;;;;;4908335;28;99257;-68
2022/04/17 00:52:45;;;;;;;13.38;7.95;;;18.20;51.60;;;;;;4908241;28;99073;-67
2022/04/17 00:55:15;;;;;;;12.50;7.90;;;18.20;51.50;;;;;;4908113;28;99965;-68
2022/04/17 00:57:41;;;;;;;14.23;8.15;;;18.20;51.60;;;;;;4909190;28;99945;-67
2022/04/17 01:00:07;;;;;;;12.85;7.72;;;18.10;51.50;;;;;;4908657;28;99060;-67
2022/04/17 01:02:34;;;;;;;13.02;7.60;;;18.20;51.50;;;;;;4909552;28;99050;-67
2022/04/17 01:04:59;;;;;;;11.55;7.15;;;18.10;51.40;;;;;;4908033;28;100005;-67
2022/04/17 01:07:26;;;;;;;12.13;7.28;;;18.10;51.40;;;;;;4907689;28;100739;-67
2022/04/17 01:09:51;;;;;;;12.60;7.43;;;18.10;51.40;;;;;;4907349;28;98915;-67
2022/04/17 01:12:17;;;;;;;11.38;7.15;;;18.10;51.40;;;;;;4908165;28;98745;-67
2022/04/17 01:14:44;;;;;;;11.75;7.20;;;18.10;52.30;;;;;;4907561;28;101178;-67
2022/04/17 01:17:10;;;;;;;10.95;6.80;;;18.10;51.30;;;;;;4907787;28;99991;-67
2022/04/17 01:19:37;;;;;;;11.27;6.93;;;18.10;51.30;;;;;;4907672;28;101810;-67
2022/04/17 01:22:05;;;;;;;12.68;6.90;;;18.10;51.30;;;;;;4908838;28;97884;-67
2022/04/17 01:27:17;;;;;;;11.15;6.72;;;18.10;51.30;;;;;;4894164;28;98630;-67
2022/04/17 01:29:43;;;;;;;13.52;6.90;;;18.10;51.30;;;;;;4911872;28;99352;-68
2022/04/17 01:32:10;;;;;;;10.00;6.38;;;18.10;51.20;;;;;;4912171;28;99119;-67
2022/04/17 01:34:37;;;;;;;11.38;6.65;;;18.10;51.20;;;;;;4910840;28;100718;-67
2022/04/17 01:37:03;;;;;;;10.27;6.18;;;18.10;51.20;;;;;;4909848;28;100096;-67
2022/04/17 01:39:29;;;;;;;11.45;6.22;;;18.10;51.10;;;;;;4910890;28;98958;-67
2022/04/17 01:41:56;;;;;;;9.77;6.43;;;18.10;51.00;;;;;;4911262;28;98565;-68
2022/04/17 01:44:24;;;;;;;9.68;6.15;;;18.10;51.00;;;;;;4910553;28;102397;-67
2022/04/17 01:46:49;;;;;;;9.60;6.07;;;18.00;50.90;;;;;;4911217;28;100563;-67
2022/04/17 01:49:16;;;;;;;9.18;5.72;;;18.10;51.00;;;;;;4911421;28;99065;-67
2022/04/17 01:51:44;;;;;;;9.60;5.88;;;18.00;50.90;;;;;;4910493;28;99972;-67
2022/04/17 01:54:11;;;;;;;9.57;6.00;;;18.00;50.90;;;;;;4910016;28;100954;-67
2022/04/17 01:56:39;;;;;;;10.32;6.43;;;18.00;50.90;;;;;;4910079;28;100910;-68
2022/04/17 01:59:09;;;;;;;10.10;5.88;;;18.00;50.80;;;;;;4910601;28;98608;-67
2022/04/17 02:01:36;;;;;;;9.98;5.97;;;18.00;50.90;;;;;;4911619;28;98869;-67
2022/04/17 02:04:03;;;;;;;9.38;5.68;;;18.00;50.80;;;;;;4910325;28;100450;-67
2022/04/17 02:06:28;;;;;;;10.23;5.80;;;18.00;50.90;;;;;;4910755;28;99846;-67
2022/04/17 02:08:55;;;;;;;8.50;5.70;;;18.00;50.80;;;;;;4909907;28;98659;-67
2022/04/17 02:11:22;;;;;;;9.05;5.38;;;18.00;50.80;;;;;;4911744;28;97988;-67
2022/04/17 02:13:51;;;;;;;7.68;5.22;;;17.90;50.60;;;;;;4911128;28;100549;-67
2022/04/17 02:16:17;;;;;;;9.75;5.45;;;18.00;50.70;;;;;;4910665;28;99218;-67
2022/04/17 02:18:45;;;;;;;9.07;5.78;;;17.90;50.70;;;;;;4909892;28;99670;-67
2022/04/17 02:21:12;;;;;;;7.90;5.47;;;17.90;50.60;;;;;;4910209;28;99614;-67
2022/04/17 02:23:39;;;;;;;7.72;5.32;;;18.00;50.70;;;;;;4910061;28;100815;-67
2022/04/17 02:26:05;;;;;;;7.75;5.70;;;17.90;50.70;;;;;;4909927;28;100001;-68
2022/04/17 02:28:34;;;;;;;8.73;5.57;;;17.90;50.60;;;;;;4910977;28;98818;-68
2022/04/17 02:31:04;;;;;;;6.93;4.90;;;17.90;50.60;;;;;;4910791;28;99133;-67
2022/04/17 02:33:31;;;;;;;7.95;5.35;;;17.90;50.60;;;;;;4911019;28;99241;-67
2022/04/17 02:36:00;;;;;;;8.35;5.13;;;17.90;50.60;;;;;;4911071;28;100097;-68
2022/04/17 02:38:27;;;;;;;6.18;5.05;;;17.90;50.50;;;;;;4912407;28;99090;-67
2022/04/17 02:40:55;;;;;;;8.70;5.63;;;17.90;50.40;;;;;;4913129;28;99047;-67
2022/04/17 02:43:21;;;;;;;7.43;5.18;;;17.90;50.40;;;;;;4909953;28;101173;-68
2022/04/17 02:45:47;;;;;;;7.45;5.20;;;17.90;50.50;;;;;;4908973;28;100502;-68
2022/04/17 02:48:13;;;;;;;7.22;5.18;;;17.90;50.40;;;;;;4910541;28;98939;-68
2022/04/17 02:50:39;;;;;;;7.72;5.28;;;17.90;50.40;;;;;;4910766;28;99016;-67
2022/04/17 02:53:05;;;;;;;6.95;5.18;;;17.80;50.30;;;;;;4910210;28;100231;-67
2022/04/17 02:55:31;;;;;;;7.70;5.20;;;17.90;50.40;;;;;;4909293;28;99926;-68
2022/04/17 02:57:57;;;;;;;7.40;4.80;;;17.80;50.30;;;;;;4910466;28;99104;-68
2022/04/17 03:00:24;;;;;;;8.05;5.40;;;17.80;50.30;;;;;;4909910;28;97893;-67
2022/04/17 03:05:37;;;;;;;6.40;5.05;;;17.80;50.20;;;;;;4910385;28;99011;-67
2022/04/17 03:08:07;;;;;;;8.13;5.07;;;17.80;50.30;;;;;;4910165;28;99337;-68
2022/04/17 03:10:37;;;;;;;8.80;5.10;;;17.80;50.30;;;;;;4910770;28;98766;-67
2022/04/17 03:13:04;;;;;;;6.88;4.68;;;17.80;50.20;;;;;;4910143;28;98992;-68
2022/04/17 03:15:34;;;;;;;6.50;5.00;;;17.80;50.20;;;;;;4908482;28;98833;-68
2022/04/17 04:19:14;;;;;;;5.57;4.75;;;17.60;49.80;;;;;;4834212;23;103339;-69
2022/04/17 04:21:47;;;;;;;5.38;4.22;;;17.60;49.80;;;;;;4909251;28;100153;-68
2022/04/17 04:24:14;;;;;;;6.40;4.20;;;17.60;49.70;;;;;;4909378;28;100531;-69
2022/04/17 04:26:44;;;;;;;4.88;4.35;;;17.60;49.70;;;;;;4909813;28;98575;-68
2022/04/17 04:29:10;;;;;;;5.38;4.05;;;17.60;49.70;;;;;;4909518;28;98867;-69
2022/04/17 04:31:36;;;;;;;5.97;4.40;;;17.50;49.60;;;;;;4908404;28;100851;-68
2022/04/17 04:34:02;;;;;;;6.15;4.75;;;17.60;49.70;;;;;;4908432;28;100572;-68
2022/04/17 04:36:28;;;;;;;6.25;4.63;;;17.60;49.70;;;;;;4909175;28;98664;-69
2022/04/17 04:38:54;;;;;;;5.28;4.40;;;17.50;49.50;;;;;;4910392;28;99073;-69
2022/04/17 04:41:20;;;;;;;6.03;4.15;;;17.50;49.40;;;;;;4909458;28;100235;-70
2022/04/17 04:43:45;;;;;;;4.95;4.10;;;17.60;49.50;;;;;;4909578;28;100052;-70
2022/04/17 04:46:12;;;;;;;5.20;4.07;;;17.60;49.60;;;;;;4909709;28;99179;-68
2022/04/17 04:51:29;;;;;;;5.10;4.30;;;17.50;49.30;;;;;;4910096;28;98938;-69
2022/04/17 04:53:56;;;;;;;4.88;4.22;;;17.50;50.40;;;;;;4909181;28;100146;-70
2022/04/17 04:56:23;;;;;;;4.95;4.38;;;17.50;49.30;;;;;;4908716;28;99588;-69
2022/04/17 04:58:49;;;;;;;5.28;4.10;;;17.50;49.30;;;;;;4910281;28;98870;-67
2022/04/17 05:01:15;;;;;;;5.65;4.50;;;17.50;49.30;;;;;;4909436;28;100270;-68
2022/04/17 05:03:41;;;;;;;5.20;3.88;;;17.50;49.20;;;;;;4912469;28;99922;-67
2022/04/17 05:06:10;;;;;;;5.30;3.97;;;17.50;49.20;;;;;;4913549;28;98929;-67
2022/04/17 05:08:36;;;;;;;4.93;4.18;;;17.50;49.30;;;;;;4912901;28;98653;-68
2022/04/17 05:11:01;;;;;;;4.85;4.00;;;17.50;49.20;;;;;;4912711;28;100640;-68
2022/04/17 05:13:27;;;;;;;5.20;4.20;;;17.50;49.40;;;;;;4912514;28;99882;-67
2022/04/17 05:15:53;;;;;;;5.30;4.20;;;17.50;49.20;;;;;;4913114;28;98719;-68
2022/04/17 05:18:18;;;;;;;5.05;4.15;;;17.50;49.10;;;;;;4912012;28;98653;-68
2022/04/17 05:20:44;;;;;;;4.80;4.20;;;17.40;49.10;;;;;;4911534;28;100239;-68
2022/04/17 05:23:26;;;;;;;5.57;4.35;;;17.50;49.10;;;;;;4911908;28;99545;-68
2022/04/17 05:25:54;;;;;;;5.00;4.15;;;17.50;49.00;;;;;;4911618;28;98745;-70
2022/04/17 05:28:21;;;;;;;5.28;4.05;;;17.40;49.00;;;;;;4912678;28;98532;-71
2022/04/17 05:30:46;;;;;;;6.35;3.95;;;17.40;49.00;;;;;;4911394;28;100482;-68
2022/04/17 05:33:12;;;;;;;4.80;4.10;;;17.40;49.00;;;;;;4912628;28;100070;-68
2022/04/17 05:35:38;;;;;;;5.88;4.22;;;17.40;48.90;;;;;;4911150;28;98959;-68
2022/04/17 05:38:04;;;;;;;4.85;3.90;;;17.50;49.00;;;;;;4912786;28;98212;-69
2022/04/17 05:40:40;;;;;;;5.40;4.00;;;17.40;48.90;;;;;;4910528;28;100190;-69
2022/04/17 05:43:05;;;;;;;4.20;3.50;;;17.40;48.90;;;;;;4912338;28;99135;-70
2022/04/17 05:45:32;;;;;;;4.63;3.90;;;17.40;49.00;;;;;;4910990;28;99393;-68
2022/04/17 05:47:59;;;;;;;5.22;4.03;;;17.40;48.90;;;;;;4912372;28;98711;-69
2022/04/17 05:50:26;;;;;;;5.20;3.90;;;17.40;48.90;;;;;;4911543;28;100130;-68
2022/04/17 05:52:54;;;;;;;5.57;3.95;;;17.40;48.90;;;;;;4912101;28;99911;-68
2022/04/17 05:55:20;;;;;;;4.55;3.78;;;17.40;48.90;;;;;;4912587;28;98662;-70
2022/04/17 05:57:48;;;;;;;4.57;3.80;;;17.40;48.90;;;;;;4913086;28;99063;-68
2022/04/17 06:00:16;;;;;;;6.75;4.47;;;17.40;48.90;;;;;;4914073;28;100747;-71
2022/04/17 06:02:46;;;;;;;4.88;4.00;;;17.40;48.90;;;;;;4916467;28;99940;-70
2022/04/17 06:05:12;;;;;;;5.63;4.00;;;17.40;49.00;;;;;;4912811;28;98669;-69
2022/04/17 06:07:39;;;;;;;5.00;3.90;;;17.40;49.00;;;;;;4912501;28;98675;-71
2022/04/17 06:10:06;;;;;;;6.25;4.00;;;17.50;48.80;;;;;;4911205;28;100946;-71
2022/04/17 06:12:32;;;;;;;5.40;3.83;;;17.50;48.40;;;;;;4910488;28;99683;-69
2022/04/17 06:14:58;;;;;;;4.70;3.58;;;17.60;48.20;;;;;;4912141;28;98812;-70
2022/04/17 06:17:23;;;;;;;4.70;3.55;;;17.70;47.90;;;;;;4912019;28;99261;-68
2022/04/17 06:19:49;;;;;;;4.57;3.55;;;17.70;47.70;;;;;;4911267;28;100253;-68
2022/04/17 06:22:17;;;;;;;4.20;3.80;;;17.80;47.70;;;;;;4912119;28;99738;-69
2022/04/17 06:24:44;;;;;;;7.60;3.55;;;17.90;47.50;;;;;;4912391;28;98906;-68
2022/04/17 06:27:09;;;;;;;8.75;4.13;;;17.90;47.40;;;;;;4913596;28;97792;-68
2022/04/17 06:29:35;;;;;;;5.57;3.65;;;18.00;47.40;;;;;;4912638;28;99930;-69
2022/04/17 06:55:13;;;;;;;5.80;3.60;;;18.30;47.50;;;;;;4909024;28;98860;-71
2022/04/17 06:57:45;;;;;;;6.03;3.75;;;18.30;47.70;;;;;;4911660;28;98703;-71
2022/04/17 07:00:12;;;;;;;6.03;3.38;;;18.40;48.00;;;;;;4911442;28;100573;-70
2022/04/17 07:02:39;;;;;;;6.03;3.70;;;18.40;48.00;;;;;;4910358;28;100669;-70
2022/04/17 07:05:05;;;;;;;3.58;3.28;;;18.40;48.00;;;;;;4910895;28;98643;-72
2022/04/17 07:07:31;;;;;;;5.60;3.28;;;18.40;48.30;;;;;;4909643;28;99247;-71
2022/04/17 07:09:57;;;;;;;5.55;3.40;;;18.40;48.20;;;;;;4909840;28;99228;-70
2022/04/17 07:12:23;;;;;;;5.45;3.65;;;18.50;48.20;;;;;;4910125;28;100356;-72
2022/04/17 07:14:49;;;;;;;4.95;3.22;;;18.50;48.30;;;;;;4909509;28;100267;-72
2022/04/17 07:17:14;;;;;;;4.65;3.00;;;18.50;48.20;;;;;;4910143;28;98461;-72
2022/04/17 07:19:40;;;;;;;5.88;3.60;;;18.60;48.30;;;;;;4909235;28;100561;-71
2022/04/17 07:22:06;;;;;;;5.30;3.58;;;18.60;48.20;;;;;;4909657;28;99440;-70
2022/04/17 07:24:32;;;;;;;4.25;3.13;;;18.60;48.20;;;;;;4908829;28;99869;-68
2022/04/17 07:26:58;;;;;;;5.57;3.22;;;18.70;48.20;;;;;;4909646;28;98711;-71
2022/04/17 07:29:23;;;;;;;4.97;3.60;;;18.70;48.20;;;;;;4908236;28;101052;-70
2022/04/17 07:31:50;;;;;;;5.80;3.47;;;18.70;48.10;;;;;;4909892;28;98728;-70
2022/04/17 07:34:18;;;;;;;4.25;3.15;;;18.70;47.90;;;;;;4909498;28;98993;-70
2022/04/17 07:36:44;;;;;;;6.45;3.40;;;18.80;47.80;;;;;;4908261;28;98962;-71
2022/04/17 07:39:10;;;;;;;4.78;3.17;;;18.80;47.70;;;;;;4907690;28;100804;-70
2022/04/17 07:41:36;;;;;;;4.93;3.42;;;18.80;47.60;;;;;;4908921;28;98683;-69
2022/04/17 07:44:01;;;;;;;5.25;2.92;;;18.80;47.50;;;;;;4908628;28;99037;-70
2022/04/17 07:46:27;;;;;;;4.65;3.00;;;18.90;47.60;;;;;;4907928;28;99176;-72
2022/04/17 07:48:52;;;;;;;4.90;2.80;;;18.90;47.50;;;;;;4907809;28;99889;-72
2022/04/17 07:51:18;;;;;;;4.07;2.60;;;18.90;47.40;;;;;;4909113;28;100687;-71
2022/04/17 07:53:43;;;;;;;5.43;3.08;;;18.90;47.30;;;;;;4890449;28;99196;-71
2022/04/17 07:56:10;;;;;;;4.57;2.67;;;18.90;47.30;;;;;;4890244;28;98693;-71
2022/04/17 07:58:39;;;;;;;6.78;3.30;;;18.90;47.20;;;;;;4889379;28;100510;-72
2022/04/17 08:01:12;;;;;;;4.38;3.17;;;18.90;47.30;;;;;;4889248;28;101184;-71
2022/04/17 08:03:46;;;;;;;4.95;2.90;;;19.00;47.30;;;;;;4890040;28;99933;-71
2022/04/17 08:06:15;;;;;;;4.15;2.95;;;19.00;47.30;;;;;;4890343;28;98207;-71
2022/04/17 08:08:42;;;;;;;3.70;2.72;;;19.00;47.10;;;;;;4889899;28;101035;-71
2022/04/17 08:11:09;;;;;;;3.33;2.67;;;19.00;47.10;;;;;;4889341;28;99817;-71
2022/04/17 08:13:35;;;;;;;3.17;2.47;;;19.00;47.10;;;;;;4888552;28;99633;-71
2022/04/17 08:16:02;;;;;;;3.83;2.70;;;19.10;47.10;;;;;;4890065;28;100243;-72
2022/04/17 08:18:28;;;;;;;3.28;2.53;;;19.10;47.00;;;;;;4888629;28;100106;-71
2022/04/17 08:20:54;;;;;;;4.38;2.83;;;19.10;47.00;;;;;;4888890;28;100081;-71
2022/04/17 08:23:20;;;;;;;3.65;2.70;;;19.10;47.00;;;;;;4888523;28;99134;-71
2022/04/17 08:25:46;;;;;;;5.35;2.97;;;19.10;47.00;;;;;;4889732;28;99052;-71
2022/04/17 08:28:13;;;;;;;4.63;2.90;;;19.10;46.90;;;;;;4888932;28;100836;-71
2022/04/17 08:30:38;;;;;;;3.33;2.58;;;19.10;46.90;;;;;;4889601;28;98895;-70
2022/04/17 08:33:06;;;;;;;4.15;2.60;;;19.20;46.90;;;;;;4889188;28;98909;-70
2022/04/17 08:35:32;;;;;;;4.88;2.70;;;19.10;46.90;;;;;;4889610;28;99058;-70
2022/04/17 08:38:02;;;;;;;3.88;2.70;;;19.10;46.90;;;;;;4887638;28;100605;-70
2022/04/17 08:40:29;;;;;;;3.65;2.30;;;19.20;47.00;;;;;;4888895;28;100576;-70
2022/04/17 08:42:56;;;;;;;3.17;2.60;;;19.20;46.90;;;;;;4888908;28;99975;-70
2022/04/17 08:45:23;;;;;;;3.20;2.35;;;19.20;46.90;;;;;;4889405;28;98667;-70
2022/04/17 08:47:50;;;;;;;3.78;2.65;;;19.20;46.90;;;;;;4888500;28;99346;-70
2022/04/17 08:50:18;;;;;;;3.10;2.40;;;19.20;46.90;;;;;;4889208;28;100735;-71
2022/04/17 08:52:47;;;;;;;3.65;2.60;;;19.20;46.90;;;;;;4888999;28;99283;-71
2022/04/17 08:55:13;;;;;;;3.92;2.50;;;19.20;46.90;;;;;;4889703;28;97911;-71
2022/04/17 08:57:39;;;;;;;3.90;2.80;;;19.20;47.00;;;;;;4888386;28;100036;-71
2022/04/17 09:00:08;;;;;;;3.10;2.55;;;19.20;46.90;;;;;;4888259;28;108310;-71
2022/04/17 09:02:35;;;;;;;3.88;2.45;;;19.20;46.90;;;;;;4888547;28;99935;-71
2022/04/17 09:05:09;;;;;;;3.30;2.53;;;19.20;46.90;;;;;;4889244;28;99115;-70
2022/04/17 09:07:39;;;;;;;2.95;2.30;;;19.20;46.80;;;;;;4888607;28;99176;-71
2022/04/17 09:10:05;;;;;;;3.30;2.40;;;19.20;46.90;;;;;;4888305;28;100489;-71
2022/04/17 09:12:31;;;;;;;2.72;2.20;;;19.20;46.90;;;;;;4888977;28;99200;-71
2022/04/17 09:14:57;;;;;;;3.42;2.28;;;19.20;47.00;;;;;;4889872;28;99177;-72
2022/04/17 09:17:33;;;;;;;3.45;2.28;;;19.20;47.10;;;;;;4888798;28;100578;-72
2022/04/17 09:20:00;;;;;;;3.10;2.33;;;19.10;47.00;;;;;;4888469;28;102207;-72
2022/04/17 09:22:49;;;;;;;3.58;2.67;;;19.10;47.20;;;;;;4888426;28;98940;-71
2022/04/17 09:25:15;;;;;;;3.47;2.50;;;19.10;47.10;;;;;;4889597;28;98878;-70
2022/04/17 09:28:04;;;;;;;3.78;2.47;;;19.10;47.20;;;;;;4889343;28;99742;-71
2022/04/17 09:30:31;;;;;;;3.00;2.25;;;19.10;47.20;;;;;;4890570;28;101587;-70
2022/04/17 09:32:57;;;;;;;2.88;2.38;;;19.00;47.30;;;;;;4891227;28;98682;-71
2022/04/17 09:35:24;;;;;;;2.50;2.30;;;19.00;47.30;;;;;;4890209;28;99110;-71
2022/04/17 09:38:02;;;;;;;3.17;2.35;;;19.00;47.30;;;;;;4888940;28;99428;-70
2022/04/17 09:40:29;;;;;;;4.00;2.30;;;18.90;47.30;;;;;;4889097;28;100062;-71
2022/04/17 09:43:15;;;;;;;3.10;2.30;;;18.90;47.50;;;;;;4889439;28;99158;-70
2022/04/17 09:45:59;;;;;;;2.97;2.20;;;18.90;47.50;;;;;;4890243;28;97903;-70
2022/04/17 09:48:46;;;;;;;2.80;2.50;;;18.90;47.60;;;;;;4889863;28;100208;-70
2022/04/17 09:51:25;;;;;;;4.82;2.50;;;18.90;47.60;;;;;;4891709;28;98865;-71
2022/04/17 09:53:57;;;;;;;3.20;2.30;;;18.90;47.60;;;;;;4890930;28;99912;-70
2022/04/17 09:56:33;;;;;;;3.05;2.45;;;18.90;47.60;;;;;;4892262;28;99761;-70
2022/04/17 09:59:00;;;;;;;3.55;2.60;;;18.90;47.40;;;;;;4891456;28;100344;-71
2022/04/17 10:01:27;;;;;;;4.55;2.42;;;18.80;47.20;;;;;;4891033;28;100276;-70
2022/04/17 10:03:54;;;;;;;2.80;2.38;;;18.80;47.20;;;;;;4891649;28;98658;-70
2022/04/17 10:06:22;;;;;;;2.72;2.40;;;18.80;47.10;;;;;;4891537;28;98909;-69
2022/04/17 10:08:50;;;;;;;2.75;2.30;;;18.80;47.10;;;;;;4891726;28;99200;-69
2022/04/17 10:11:16;;;;;;;2.88;2.00;;;18.80;47.10;;;;;;4892718;28;98972;-70
2022/04/17 10:13:41;;;;;;;4.22;3.83;;;18.80;47.20;;;;;;4891712;28;98730;-70
2022/04/17 10:16:08;;;;;;;4.22;3.65;;;18.80;47.60;;;;;;4891458;28;98630;-71
2022/04/17 10:18:39;;;;;;;5.88;3.30;;;18.90;49.00;;;;;;4890738;28;100041;-70
2022/04/17 10:21:06;;;;;;;7.07;3.45;;;18.90;49.60;;;;;;4891007;28;99923;-71
2022/04/17 10:23:35;;;;;;;5.90;3.30;;;18.90;50.20;;;;;;4892251;28;99041;-71
2022/04/17 10:26:03;;;;;;;5.00;3.20;;;19.00;50.30;;;;;;4891936;28;99150;-72
2022/04/17 10:28:39;;;;;;;6.03;3.30;;;19.00;50.20;;;;;;4891336;28;99887;-71
2022/04/17 10:31:14;;;;;;;8.55;3.67;;;19.00;50.00;;;;;;4891421;28;100219;-71
2022/04/17 10:34:10;;;;;;;4.85;4.00;;;19.00;49.30;;;;;;4891264;28;98754;-71
2022/04/17 10:37:03;;;;;;;5.07;4.00;;;19.00;47.60;;;;;;4890996;28;98562;-71
2022/04/17 10:39:50;;;;;;;6.28;3.92;;;19.00;46.30;;;;;;4890238;28;99595;-71
2022/04/17 10:42:16;;;;;;;15.82;4.10;;;18.90;45.00;;;;;;4890449;28;98946;-71
2022/04/17 10:44:41;;;;;;;5.13;3.85;;;18.90;44.50;;;;;;4891306;28;99858;-71
2022/04/17 10:47:21;;;;;;;8.15;3.58;;;18.90;43.70;;;;;;4891682;28;99312;-72
2022/04/17 10:49:54;;;;;;;4.43;3.80;;;18.90;42.60;;;;;;4890055;28;100221;-71
2022/04/17 10:52:33;;;;;;;4.35;3.75;;;18.90;42.00;;;;;;4890297;28;100007;-71
2022/04/17 10:55:12;;;;;;;5.47;3.83;;;18.90;41.60;;;;;;4890266;28;99120;-70
2022/04/17 10:57:45;;;;;;;6.30;3.65;;;18.90;41.40;;;;;;4890662;28;98617;-70
2022/04/17 11:00:36;;;;;;;;;;;18.90;41.00;;;;;;4889842;28;98962;-70
2022/04/17 11:03:09;;;;;;;4.28;3.65;;;18.80;41.20;;;;;;4891836;28;100725;-71
2022/04/17 11:08:25;;;;;;;5.63;3.50;;;18.80;40.50;;;;;;4890763;28;98755;-71
2022/04/17 11:11:00;;;;;;;6.13;3.78;;;18.80;40.00;;;;;;4890284;28;100898;-70
2022/04/17 11:13:26;;;;;;;4.47;3.58;;;18.80;39.70;;;;;;4892504;28;99584;-71
2022/04/17 11:15:57;;;;;;;5.45;3.65;;;18.80;39.70;;;;;;4893323;28;98705;-70
2022/04/17 11:18:29;;;;;;;6.60;3.60;;;18.80;39.60;;;;;;4891807;28;98677;-70
2022/04/17 11:20:55;;;;;;;7.25;3.95;;;18.90;39.30;;;;;;4890134;28;100408;-71
2022/04/17 11:23:46;;;;;;;4.80;3.50;;;18.90;39.30;;;;;;4890314;28;99964;-70
2022/04/17 11:26:11;;;;;;;4.10;3.35;;;18.90;39.00;;;;;;4890486;28;98803;-70
2022/04/17 11:28:37;;;;;;;5.97;3.60;;;18.90;38.90;;;;;;4891033;28;98362;-70
2022/04/17 11:31:04;;;;;;;4.97;3.65;;;18.90;38.30;;;;;;4890196;28;100148;-71
2022/04/17 11:33:30;;;;;;;5.45;3.55;;;18.90;38.20;;;;;;4889481;28;99858;-71
2022/04/17 11:35:57;;;;;;;13.00;3.67;;;18.90;38.00;;;;;;4890318;28;99575;-71
2022/04/17 11:38:22;;;;;;;4.50;3.17;;;19.00;37.60;;;;;;4890901;28;98857;-71
2022/04/17 11:40:49;;;;;;;4.85;3.30;;;19.00;37.40;;;;;;4889423;28;99345;-71
2022/04/17 11:43:16;;;;;;;3.63;3.20;;;19.00;37.50;;;;;;4889458;28;100107;-70
2022/04/17 11:45:44;;;;;;;3.97;3.53;;;19.00;37.10;;;;;;4890694;28;98626;-71
2022/04/17 11:48:13;;;;;;;5.63;3.25;;;19.10;37.00;;;;;;4890291;28;99153;-71
2022/04/17 11:50:40;;;;;;;3.50;3.20;;;19.10;36.80;;;;;;4889043;28;100281;-71
2022/04/17 11:53:12;;;;;;;4.95;3.28;;;19.10;36.50;;;;;;4888665;28;99933;-71
2022/04/17 11:55:43;;;;;;;7.28;3.80;;;19.10;36.10;;;;;;4888974;28;99040;-71
2022/04/17 11:58:22;;;;;;;7.80;3.50;;;19.10;36.10;;;;;;4889852;28;99263;-70
2022/04/17 12:01:03;;;;;;;5.53;3.25;;;19.20;36.40;;;;;;4888114;28;99848;-70
2022/04/17 12:03:43;;;;;;;6.32;3.00;;;19.20;36.80;;;;;;4888555;28;100909;-70
2022/04/17 12:06:10;;;;;;;7.03;3.10;;;19.20;37.30;;;;;;4889347;28;99081;-71
2022/04/17 12:08:37;;;;;;;7.80;2.83;;;19.30;37.80;;;;;;4889032;28;99043;-71
2022/04/17 12:11:07;;;;;;;4.38;2.50;;;19.30;38.20;;;;;;4889662;28;100926;-71
2022/04/17 12:13:33;;;;;;;6.68;2.47;;;19.40;39.50;;;;;;4889651;28;100342;-70
2022/04/17 12:16:07;;;;;;;6.03;2.75;;;19.30;38.70;;;;;;4891124;28;98662;-71
2022/04/17 12:18:33;;;;;;;4.43;2.67;;;19.40;38.90;;;;;;4889909;28;99072;-71
2022/04/17 12:21:03;;;;;;;3.60;2.35;;;19.40;39.30;;;;;;4889700;28;100203;-70
2022/04/17 12:23:32;;;;;;;4.80;2.15;;;19.40;39.50;;;;;;4889576;28;99006;-71
2022/04/17 12:25:59;;;;;;;3.47;2.22;;;19.30;39.70;;;;;;4889361;28;99865;-70
2022/04/17 12:28:26;;;;;;;4.38;2.03;;;19.30;40.00;;;;;;4888992;28;98704;-70
2022/04/17 12:30:52;;;;;;;4.57;2.33;;;19.40;40.20;;;;;;4888329;28;100381;-71
2022/04/17 12:33:27;;;;;;;3.67;1.90;;;19.40;40.30;;;;;;4889282;28;99139;-71
2022/04/17 12:36:15;;;;;;;4.82;2.17;;;19.30;40.40;;;;;;4888835;28;98694;-71
2022/04/17 12:38:52;;;;;;;3.65;2.05;;;19.40;40.80;;;;;;4889081;28;99251;-71
2022/04/17 12:41:25;;;;;;;3.97;2.05;;;19.30;40.90;;;;;;4889245;28;99212;-71
2022/04/17 12:43:52;;;;;;;3.72;1.98;;;19.40;41.10;;;;;;4888396;28;99929;-71
2022/04/17 12:46:30;;;;;;;3.08;1.90;;;19.40;41.20;;;;;;4889066;28;99205;-71
2022/04/17 12:49:06;;;;;;;2.72;1.80;;;19.30;41.30;;;;;;4889280;28;99102;-71
2022/04/17 12:51:32;;;;;;;2.60;1.83;;;19.40;41.50;;;;;;4888854;28;101015;-71
2022/04/17 12:53:59;;;;;;;4.63;1.75;;;19.30;41.70;;;;;;4888937;28;100637;-71
2022/04/17 12:56:33;;;;;;;4.53;1.80;;;19.30;41.90;;;;;;4891724;28;99053;-71
2022/04/17 12:59:00;;;;;;;4.30;1.75;;;19.40;42.00;;;;;;4893379;28;98778;-71
2022/04/17 13:01:27;;;;;;;2.67;2.03;;;19.40;42.10;;;;;;4889827;28;100295;-71
2022/04/17 13:04:06;;;;;;;7.95;1.90;;;19.30;42.20;;;;;;4889990;28;100311;-71
2022/04/17 13:06:31;;;;;;;2.20;1.77;;;19.40;42.40;;;;;;4890222;28;98959;-70
2022/04/17 13:09:13;;;;;;;3.80;2.15;;;19.30;42.50;;;;;;4890420;28;98511;-70
2022/04/17 13:11:43;;;;;;;4.03;1.60;;;19.40;42.70;;;;;;4888627;28;100308;-71
2022/04/17 13:14:10;;;;;;;1.95;1.35;;;19.40;42.80;;;;;;4888349;28;100301;-71
2022/04/17 13:16:57;;;;;;;2.22;1.60;;;19.30;42.90;;;;;;4888914;28;99482;-70
2022/04/17 13:19:25;;;;;;;1.70;1.50;;;19.30;43.00;;;;;;4888900;28;98605;-70
2022/04/17 13:21:52;;;;;;;2.92;1.52;;;19.30;43.10;;;;;;4888506;28;100441;-72
2022/04/17 13:24:22;;;;;;;3.08;1.77;;;19.30;43.20;;;;;;4890899;28;100026;-71
2022/04/17 13:26:48;;;;;;;3.17;1.52;;;19.40;43.40;;;;;;4892720;28;98666;-71
2022/04/17 13:29:14;;;;;;;2.92;1.42;;;19.40;43.40;;;;;;4892125;28;98885;-71
2022/04/17 13:31:42;;;;;;;2.97;1.60;;;19.40;43.50;;;;;;4891744;28;100242;-71
2022/04/17 13:34:07;;;;;;;2.50;1.50;;;19.40;43.60;;;;;;4892404;28;98815;-71
2022/04/17 13:36:33;;;;;;;2.53;1.30;;;19.40;43.60;;;;;;4891490;28;98638;-71
2022/04/17 13:39:00;;;;;;;2.33;1.50;;;19.40;43.70;;;;;;4893041;28;99177;-70
2022/04/17 13:41:29;;;;;;;3.13;1.35;;;19.30;43.80;;;;;;4891851;28;100951;-71
2022/04/17 13:43:56;;;;;;;2.92;1.50;;;19.40;43.90;;;;;;4891594;28;100951;-70
2022/04/17 13:46:28;;;;;;;2.58;1.60;;;19.40;44.10;;;;;;4891917;28;100313;-70
2022/04/17 13:48:55;;;;;;;2.37;1.47;;;19.40;44.10;;;;;;4892618;28;99124;-71
2022/04/17 13:51:20;;;;;;;1.88;1.50;;;19.40;44.30;;;;;;4891755;28;101058;-71
2022/04/17 13:53:46;;;;;;;1.88;1.38;;;19.30;44.30;;;;;;4891320;28;99376;-71
2022/04/17 13:56:12;;;;;;;3.17;1.52;;;19.30;44.40;;;;;;4891470;28;98952;-71
2022/04/17 13:58:37;;;;;;;2.70;1.73;;;19.30;44.50;;;;;;4892869;28;97926;-71
2022/04/17 14:01:03;;;;;;;2.53;1.30;;;19.30;44.50;;;;;;4892255;28;100175;-70
2022/04/17 14:03:28;;;;;;;2.00;1.40;;;19.30;44.60;;;;;;4891571;28;100031;-70
2022/04/17 14:05:54;;;;;;;2.10;1.40;;;19.30;44.70;;;;;;4891612;28;99761;-70
2022/04/17 14:08:21;;;;;;;2.25;1.40;;;19.30;44.80;;;;;;4891966;28;98644;-70
2022/04/17 14:10:47;;;;;;;2.20;1.25;;;19.30;44.80;;;;;;4893427;28;99298;-71
2022/04/17 14:13:13;;;;;;;1.55;1.23;;;19.30;44.90;;;;;;4892322;28;98878;-71
2022/04/17 14:15:39;;;;;;;1.38;1.10;;;19.30;44.90;;;;;;4892276;28;98695;-71
2022/04/17 14:18:06;;;;;;;2.35;1.70;;;19.30;44.90;;;;;;4891773;28;98970;-71
2022/04/17 14:20:34;;;;;;;2.33;1.40;;;19.30;45.10;;;;;;4892356;28;100244;-71
2022/04/17 14:23:01;;;;;;;1.63;1.13;;;19.30;45.10;;;;;;4875478;28;97902;-71
2022/04/17 14:25:26;;;;;;;2.08;1.30;;;19.30;45.20;;;;;;4893067;28;99096;-72